DBR761 KSEZ-KBFI
Flight info
| Callsign | DBR761 |
|---|---|
| Flight time | 2h 19m |
| Altitude | 43000 |
| Route | BYTER1 BYTER CORKR Q35 IMB YKM CHINS5 |
| Aircraft | CL30/M-SDE3FGJ4P2RWXY/SD1 |
Departure
| Time | 2026-04-24 17:01 |
|---|---|
| Airport | Sedona Airport (KSEZ) |
Arrival
| Time | 2026-04-24 19:20 |
|---|---|
| Airport | King County International Airport - Boeing Field (KBFI) |
| Time | Latitude | Longitude | Altitude | Speed | Heading |
|---|---|---|---|---|---|
| 2026-04-24 16:51 | 34.84866 | -111.79091 | 4838 ft | 0 kts | 225° |
| 2026-04-24 16:56 | 34.84858 | -111.79100 | 4838 ft | 3 kts | 220° |
| 2026-04-24 16:56 | 34.84839 | -111.79088 | 4838 ft | 4 kts | 135° |
| 2026-04-24 16:56 | 34.84810 | -111.79091 | 4838 ft | 6 kts | 224° |
| 2026-04-24 16:57 | 34.84773 | -111.79133 | 4838 ft | 7 kts | 191° |
| 2026-04-24 16:57 | 34.84728 | -111.79117 | 4838 ft | 8 kts | 208° |
| 2026-04-24 16:57 | 34.84683 | -111.79170 | 4838 ft | 10 kts | 226° |
| 2026-04-24 16:57 | 34.84633 | -111.79233 | 4838 ft | 9 kts | 226° |
| 2026-04-24 16:58 | 34.84589 | -111.79286 | 4838 ft | 9 kts | 219° |
| 2026-04-24 16:58 | 34.84524 | -111.79293 | 4838 ft | 10 kts | 176° |
| 2026-04-24 16:58 | 34.84468 | -111.79340 | 4838 ft | 11 kts | 226° |
| 2026-04-24 16:58 | 34.84423 | -111.79408 | 4838 ft | 9 kts | 226° |
| 2026-04-24 16:59 | 34.84384 | -111.79458 | 4838 ft | 6 kts | 218° |
| 2026-04-24 16:59 | 34.84371 | -111.79450 | 4838 ft | 2 kts | 77° |
| 2026-04-24 16:59 | 34.84387 | -111.79438 | 4838 ft | 0 kts | 46° |
| 2026-04-24 17:00 | 34.84480 | -111.79322 | 4838 ft | 59 kts | 46° |
| 2026-04-24 17:00 | 34.85020 | -111.78650 | 4839 ft | 162 kts | 45° |
| 2026-04-24 17:01 | 34.87067 | -111.76085 | 6315 ft | 254 kts | 46° |
| 2026-04-24 17:01 | 34.88375 | -111.74433 | 7102 ft | 283 kts | 46° |
| 2026-04-24 17:02 | 34.91442 | -111.71522 | 8588 ft | 286 kts | 18° |
| 2026-04-24 17:02 | 34.93455 | -111.71272 | 9330 ft | 306 kts | 357° |
| 2026-04-24 17:02 | 34.95560 | -111.71525 | 10094 ft | 301 kts | 350° |
| 2026-04-24 17:02 | 34.97646 | -111.71995 | 10893 ft | 315 kts | 343° |
| 2026-04-24 17:03 | 35.01830 | -111.73848 | 12527 ft | 324 kts | 333° |
| 2026-04-24 17:03 | 35.03895 | -111.75008 | 13339 ft | 328 kts | 331° |
| 2026-04-24 17:03 | 35.05964 | -111.76240 | 14145 ft | 331 kts | 330° |
| 2026-04-24 17:04 | 35.08012 | -111.77493 | 14942 ft | 334 kts | 329° |
| 2026-04-24 17:04 | 35.12179 | -111.80078 | 16545 ft | 340 kts | 329° |
| 2026-04-24 17:04 | 35.14301 | -111.81397 | 17350 ft | 343 kts | 329° |
| 2026-04-24 17:05 | 35.16439 | -111.82725 | 18156 ft | 346 kts | 329° |
| 2026-04-24 17:05 | 35.18580 | -111.84052 | 18954 ft | 348 kts | 328° |
| 2026-04-24 17:05 | 35.22960 | -111.86761 | 20563 ft | 355 kts | 328° |
| 2026-04-24 17:06 | 35.25156 | -111.88118 | 21362 ft | 358 kts | 328° |
| 2026-04-24 17:06 | 35.29644 | -111.90892 | 22972 ft | 363 kts | 327° |
| 2026-04-24 17:06 | 35.31879 | -111.92274 | 23764 ft | 366 kts | 327° |
| 2026-04-24 17:07 | 35.33393 | -111.93210 | 24298 ft | 368 kts | 327° |
| 2026-04-24 17:07 | 35.36472 | -111.95115 | 25374 ft | 372 kts | 326° |
| 2026-04-24 17:07 | 35.41123 | -111.97994 | 26977 ft | 378 kts | 326° |
| 2026-04-24 17:08 | 35.45828 | -112.00907 | 28578 ft | 381 kts | 326° |
| 2026-04-24 17:08 | 35.48209 | -112.02381 | 29384 ft | 380 kts | 325° |
| 2026-04-24 17:08 | 35.50543 | -112.03823 | 30176 ft | 379 kts | 325° |
| 2026-04-24 17:09 | 35.55231 | -112.06723 | 31781 ft | 372 kts | 324° |
| 2026-04-24 17:09 | 35.59788 | -112.09544 | 33282 ft | 366 kts | 324° |
| 2026-04-24 17:10 | 35.62076 | -112.10969 | 33828 ft | 368 kts | 323° |
| 2026-04-24 17:10 | 35.68929 | -112.15254 | 35334 ft | 371 kts | 323° |
| 2026-04-24 17:11 | 35.75842 | -112.19575 | 36837 ft | 369 kts | 323° |
| 2026-04-24 17:12 | 35.87128 | -112.26627 | 39323 ft | 358 kts | 322° |
| 2026-04-24 18:54 | 46.11655 | -120.26663 | 38306 ft | 423 kts | 344° |
| 2026-04-24 18:55 | 46.17338 | -120.28877 | 37408 ft | 425 kts | 344° |
| 2026-04-24 18:55 | 46.20203 | -120.29995 | 36957 ft | 424 kts | 345° |
| 2026-04-24 18:55 | 46.23030 | -120.31095 | 36511 ft | 423 kts | 345° |
| 2026-04-24 18:56 | 46.25880 | -120.32207 | 36059 ft | 425 kts | 345° |
| 2026-04-24 18:56 | 46.28728 | -120.33322 | 35611 ft | 427 kts | 345° |
| 2026-04-24 18:56 | 46.31612 | -120.34452 | 35159 ft | 426 kts | 345° |
| 2026-04-24 18:56 | 46.34450 | -120.35565 | 34712 ft | 424 kts | 345° |
| 2026-04-24 18:57 | 46.37312 | -120.36690 | 34259 ft | 421 kts | 345° |
| 2026-04-24 18:57 | 46.40093 | -120.37783 | 33814 ft | 417 kts | 345° |
| 2026-04-24 18:57 | 46.42882 | -120.38880 | 33363 ft | 412 kts | 345° |
| 2026-04-24 18:57 | 46.45638 | -120.39965 | 32914 ft | 408 kts | 345° |
| 2026-04-24 18:58 | 46.48361 | -120.41040 | 32448 ft | 403 kts | 345° |
| 2026-04-24 18:58 | 46.51054 | -120.42103 | 31954 ft | 398 kts | 345° |
| 2026-04-24 18:58 | 46.53679 | -120.43186 | 31457 ft | 393 kts | 342° |
| 2026-04-24 18:58 | 46.56102 | -120.45030 | 30954 ft | 393 kts | 329° |
| 2026-04-24 18:59 | 46.58196 | -120.47573 | 30461 ft | 392 kts | 320° |
| 2026-04-24 18:59 | 46.60045 | -120.50477 | 29965 ft | 390 kts | 315° |
| 2026-04-24 18:59 | 46.61726 | -120.53566 | 29467 ft | 387 kts | 312° |
| 2026-04-24 18:59 | 46.63295 | -120.56732 | 28969 ft | 384 kts | 310° |
| 2026-04-24 19:00 | 46.64798 | -120.59929 | 28468 ft | 381 kts | 309° |
| 2026-04-24 19:00 | 46.66253 | -120.63101 | 27971 ft | 378 kts | 309° |
| 2026-04-24 19:00 | 46.67702 | -120.66291 | 27468 ft | 375 kts | 309° |
| 2026-04-24 19:00 | 46.69123 | -120.69417 | 26972 ft | 372 kts | 309° |
| 2026-04-24 19:01 | 46.70552 | -120.72547 | 26469 ft | 368 kts | 309° |
| 2026-04-24 19:01 | 46.71960 | -120.75610 | 25973 ft | 365 kts | 310° |
| 2026-04-24 19:01 | 46.73388 | -120.78693 | 25468 ft | 363 kts | 310° |
| 2026-04-24 19:01 | 46.74784 | -120.81690 | 24972 ft | 360 kts | 310° |
| 2026-04-24 19:02 | 46.76196 | -120.84704 | 24470 ft | 358 kts | 310° |
| 2026-04-24 19:02 | 46.77599 | -120.87687 | 23969 ft | 355 kts | 310° |
| 2026-04-24 19:02 | 46.78994 | -120.90648 | 23468 ft | 352 kts | 310° |
| 2026-04-24 19:02 | 46.80379 | -120.93585 | 22967 ft | 350 kts | 310° |
| 2026-04-24 19:03 | 46.81692 | -120.96374 | 22485 ft | 342 kts | 310° |
| 2026-04-24 19:03 | 46.83017 | -120.99199 | 21983 ft | 333 kts | 310° |
| 2026-04-24 19:03 | 46.84294 | -121.01923 | 21487 ft | 327 kts | 310° |
| 2026-04-24 19:03 | 46.85569 | -121.04641 | 20986 ft | 322 kts | 310° |
| 2026-04-24 19:04 | 46.86828 | -121.07323 | 20485 ft | 318 kts | 310° |
| 2026-04-24 19:04 | 46.88074 | -121.09976 | 19984 ft | 315 kts | 310° |
| 2026-04-24 19:04 | 46.89305 | -121.12600 | 19483 ft | 312 kts | 310° |
| 2026-04-24 19:04 | 46.90525 | -121.15204 | 18984 ft | 309 kts | 310° |
| 2026-04-24 19:05 | 46.91736 | -121.17792 | 18482 ft | 307 kts | 310° |
| 2026-04-24 19:05 | 46.92937 | -121.20360 | 17982 ft | 305 kts | 310° |
| 2026-04-24 19:05 | 46.94133 | -121.22919 | 17479 ft | 303 kts | 310° |
| 2026-04-24 19:05 | 46.95313 | -121.25446 | 16982 ft | 301 kts | 310° |
| 2026-04-24 19:06 | 46.96495 | -121.27981 | 16479 ft | 300 kts | 310° |
| 2026-04-24 19:06 | 46.97657 | -121.30475 | 15983 ft | 299 kts | 309° |
| 2026-04-24 19:06 | 46.98825 | -121.32984 | 15482 ft | 296 kts | 309° |
| 2026-04-24 19:06 | 46.99977 | -121.35466 | 14982 ft | 293 kts | 309° |
| 2026-04-24 19:07 | 47.01117 | -121.37926 | 14479 ft | 289 kts | 309° |
| 2026-04-24 19:07 | 47.02245 | -121.40361 | 13977 ft | 287 kts | 309° |
| 2026-04-24 19:07 | 47.03350 | -121.42753 | 13478 ft | 284 kts | 309° |
| 2026-04-24 19:07 | 47.04462 | -121.45159 | 12983 ft | 283 kts | 308° |
| 2026-04-24 19:08 | 47.05546 | -121.47505 | 12660 ft | 277 kts | 308° |
| 2026-04-24 19:08 | 47.06621 | -121.49835 | 12352 ft | 273 kts | 308° |
| 2026-04-24 19:08 | 47.07675 | -121.52117 | 12054 ft | 271 kts | 308° |
| 2026-04-24 19:08 | 47.08730 | -121.54401 | 11753 ft | 269 kts | 308° |
| 2026-04-24 19:09 | 47.09779 | -121.56674 | 11453 ft | 268 kts | 308° |
| 2026-04-24 19:09 | 47.10817 | -121.58923 | 11151 ft | 267 kts | 308° |
| 2026-04-24 19:09 | 47.11865 | -121.61195 | 10851 ft | 267 kts | 308° |
| 2026-04-24 19:09 | 47.12896 | -121.63438 | 10553 ft | 267 kts | 307° |
| 2026-04-24 19:10 | 47.13940 | -121.65712 | 10251 ft | 267 kts | 307° |
| 2026-04-24 19:10 | 47.14983 | -121.67983 | 9949 ft | 267 kts | 307° |
| 2026-04-24 19:10 | 47.16009 | -121.70220 | 9652 ft | 267 kts | 307° |
| 2026-04-24 19:10 | 47.17053 | -121.72498 | 9350 ft | 268 kts | 306° |
| 2026-04-24 19:11 | 47.18096 | -121.74775 | 9049 ft | 268 kts | 306° |
| 2026-04-24 19:11 | 47.19124 | -121.77025 | 8752 ft | 268 kts | 306° |
| 2026-04-24 19:11 | 47.20168 | -121.79311 | 8450 ft | 268 kts | 306° |
| 2026-04-24 19:11 | 47.21208 | -121.81589 | 8152 ft | 267 kts | 306° |
| 2026-04-24 19:12 | 47.22232 | -121.83834 | 7852 ft | 266 kts | 306° |
| 2026-04-24 19:12 | 47.23262 | -121.86093 | 7551 ft | 265 kts | 306° |
| 2026-04-24 19:12 | 47.24292 | -121.88354 | 7250 ft | 265 kts | 306° |
| 2026-04-24 19:12 | 47.25307 | -121.90584 | 6954 ft | 263 kts | 306° |
| 2026-04-24 19:13 | 47.25981 | -121.92065 | 6753 ft | 263 kts | 306° |
| 2026-04-24 19:13 | 47.27338 | -121.95051 | 6350 ft | 261 kts | 305° |
| 2026-04-24 19:13 | 47.28351 | -121.97282 | 6044 ft | 260 kts | 305° |
| 2026-04-24 19:13 | 47.29346 | -121.99476 | 5750 ft | 259 kts | 305° |
| 2026-04-24 19:14 | 47.30347 | -122.01684 | 5450 ft | 258 kts | 305° |
| 2026-04-24 19:14 | 47.31337 | -122.03868 | 5151 ft | 257 kts | 305° |
| 2026-04-24 19:14 | 47.32328 | -122.06057 | 4937 ft | 255 kts | 304° |
| 2026-04-24 19:14 | 47.33313 | -122.08237 | 4736 ft | 254 kts | 304° |
| 2026-04-24 19:15 | 47.34280 | -122.10380 | 4540 ft | 253 kts | 304° |
| 2026-04-24 19:15 | 47.35325 | -122.12470 | 4336 ft | 252 kts | 311° |
| 2026-04-24 19:15 | 47.36610 | -122.14217 | 4138 ft | 249 kts | 324° |
| 2026-04-24 19:15 | 47.37928 | -122.15505 | 3985 ft | 218 kts | 328° |
| 2026-04-24 19:16 | 47.40049 | -122.18191 | 3558 ft | 181 kts | 317° |
| 2026-04-24 19:16 | 47.40963 | -122.19409 | 3298 ft | 174 kts | 321° |
| 2026-04-24 19:16 | 47.41874 | -122.20505 | 3040 ft | 162 kts | 322° |
| 2026-04-24 19:17 | 47.42704 | -122.21474 | 2808 ft | 146 kts | 323° |
| 2026-04-24 19:17 | 47.43532 | -122.22266 | 2554 ft | 140 kts | 329° |
| 2026-04-24 19:17 | 47.44357 | -122.23007 | 2298 ft | 137 kts | 329° |
| 2026-04-24 19:17 | 47.45180 | -122.23697 | 2042 ft | 134 kts | 331° |
| 2026-04-24 19:18 | 47.45987 | -122.24361 | 1796 ft | 134 kts | 331° |
| 2026-04-24 19:18 | 47.46804 | -122.25039 | 1554 ft | 134 kts | 330° |
| 2026-04-24 19:18 | 47.47603 | -122.25718 | 1340 ft | 129 kts | 330° |
| 2026-04-24 19:18 | 47.48369 | -122.26363 | 1071 ft | 127 kts | 330° |
| 2026-04-24 19:19 | 47.49128 | -122.27005 | 789 ft | 124 kts | 330° |
| 2026-04-24 19:19 | 47.49884 | -122.27641 | 513 ft | 127 kts | 330° |
| 2026-04-24 19:19 | 47.50645 | -122.28281 | 327 ft | 127 kts | 330° |
| 2026-04-24 19:19 | 47.51393 | -122.28912 | 159 ft | 121 kts | 330° |
| 2026-04-24 19:20 | 47.52109 | -122.29521 | 34 ft | 114 kts | 330° |
| 2026-04-24 19:20 | 47.52691 | -122.30015 | 26 ft | 79 kts | 330° |
| 2026-04-24 19:20 | 47.53097 | -122.30360 | 26 ft | 58 kts | 330° |
| 2026-04-24 19:20 | 47.53409 | -122.30623 | 26 ft | 48 kts | 330° |
| 2026-04-24 19:21 | 47.53621 | -122.30802 | 26 ft | 23 kts | 330° |
| 2026-04-24 19:21 | 47.53711 | -122.30781 | 26 ft | 13 kts | 57° |
| 2026-04-24 19:21 | 47.53762 | -122.30660 | 26 ft | 11 kts | 53° |
| 2026-04-24 19:21 | 47.53817 | -122.30684 | 26 ft | 10 kts | 324° |
| 2026-04-24 19:22 | 47.53834 | -122.30685 | 26 ft | 2 kts | 53° |
| 2026-04-24 19:22 | 47.53843 | -122.30651 | 26 ft | 2 kts | 130° |
| 2026-04-24 19:22 | 47.53827 | -122.30630 | 26 ft | 4 kts | 140° |
| 2026-04-24 19:22 | 47.53810 | -122.30617 | 26 ft | 0 kts | 156° |
| 2026-04-24 19:23 | 47.53809 | -122.30617 | 26 ft | 0 kts | 156° |